Nashville, TN

9:48 PM CDT on May 27, 2017 (GMT -0500)
Vanderbilt University WeatherSTEM | | Change Station
Active Advisory: Severe Thunderstorm Watch

Elev 551 ft 36.14 °N, 86.81 °W | Updated 44 seconds ago

Mostly Cloudy
Mostly Cloudy
65.9 °F
Feels Like 65.9 °F
N
0.0
Wind Variable Wind from South

Today
High -- | Low -- °F
--% Chance of Precip.
Yesterday
High -- | Low -- °F
Precip. -- in
Pressure 29.96 in
Visibility 10.0 miles
Clouds Few 3100 ft
Scattered Clouds 6500 ft
Mostly Cloudy 8500 ft
Overcast 13000 ft
Dew Point 63 °F
Humidity 90%
Rainfall 2.50 in
Snow Depth Not available.
5:33 AM 7:55 PM
Waxing Crescent, 8% visible
METAR KBNA 280153Z 34005KT 10SM -TSRA FEW031CB SCT065 BKN085 OVC130 19/17 A2997 RMK AO2 SLP143 FRQ LTGICCC ALQDS TS ALQDS MOV SE P0003 T01890172 $
Pressure 29.96 in
Visibility 10.0 miles
Clouds Few 3100 ft
Scattered Clouds 6500 ft
Mostly Cloudy 8500 ft
Overcast 13000 ft
Dew Point 63 °F
Humidity 90%
Rainfall 2.50 in
Snow Depth Not available.
5:33 AM 7:55 PM
Waxing Crescent, 8% visible
METAR KBNA 280153Z 34005KT 10SM -TSRA FEW031CB SCT065 BKN085 OVC130 19/17 A2997 RMK AO2 SLP143 FRQ LTGICCC ALQDS TS ALQDS MOV SE P0003 T01890172 $

Get Your Daily Forecast Email!

Thanks for signing up!

Be on the lookout for a verification email in your inbox.

You'll start receiving severe weather alerts in your inbox..

×

10-Day Weather Forecast

Almanac

Astronomy

May. 27, 2017 Rise Set
Actual Time
Civil Twilight
Nautical Twilight
Astronomical Twilight
Moon
Length of Visible Light
Length of Day
Tomorrow will be .
, % of the Moon is Illuminated

Today's Extremes

State Highs State Lows

Community

WunderPhotos

Category 6

Welcome to Category 6. This is the collective home for Weather Underground's featured writeups by Dr. Jeff Masters (right), Bob Henson (left), Chris Burt, and other regular contributors.

Nearby

Air Quality

  Air Quality AQ Index Pollutant
Not available.

Snow Depth

Station Depth Elevation

Earthquake Activity

City Distance Mag. Time & Date
Minimum magnitude displayed is 2.5.

Coastal Water Temperatures

Place Temperature

Stations

Nearby Weather Stations

Station Location Temp. Windchill Dew Point Humidity Wind Precip. Elev Updated Type
                   

Watches & Warnings

Severe Thunderstorm Watch
Issued: 9:43 PM CDT May. 27, 2017 – National Weather Service

Severe Thunderstorm Watch 280 remains in effect until 1200 am CDT

TN
. Tennessee counties included are

Bedford Benton Cannon
Carroll Cheatham Clay
Coffee Cumberland Davidson
De Kalb Dickson Dyer
Fentress Gibson Giles
Grundy Henry Hickman
Houston Humphreys Jackson
Lake Lawrence Lewis
Macon Marshall Maury
Montgomery Obion Overton
Perry Pickett Putnam
Robertson Rutherford Smith
Stewart Sumner Trousdale
Van Buren Warren Wayne
Weakley white Williamson
Wilson